createdAt,value
2018-12-24T00:00:45.806Z,97717.16
2018-12-24T00:03:17.819Z,97711.38
2018-12-24T00:05:49.837Z,97712.66
2018-12-24T00:08:21.836Z,97704.58
2018-12-24T00:10:53.871Z,97697.97
2018-12-24T00:13:25.860Z,97690.50
2018-12-24T00:15:58.019Z,97690.25
2018-12-24T00:18:30.016Z,97685.17
2018-12-24T00:21:02.043Z,97676.17
2018-12-24T00:23:34.043Z,97675.86
2018-12-24T00:26:06.215Z,97684.20
2018-12-24T00:28:38.211Z,97670.75
2018-12-24T00:31:10.237Z,97675.00
2018-12-24T00:33:42.262Z,97672.12
2018-12-24T00:36:14.298Z,97668.19
2018-12-24T00:38:46.287Z,97672.98
2018-12-24T00:41:18.322Z,97677.55
2018-12-24T00:43:50.303Z,97675.71
2018-12-24T00:46:22.276Z,97683.48
2018-12-24T00:48:54.322Z,97676.17
2018-12-24T00:51:26.330Z,97679.64
2018-12-24T00:53:58.269Z,97692.66
2018-12-24T00:56:30.275Z,97675.71
2018-12-24T00:59:02.301Z,97690.75
2018-12-24T01:01:34.291Z,97686.19
2018-12-24T01:04:06.304Z,97685.95
2018-12-24T01:06:38.491Z,97680.11
2018-12-24T01:09:10.491Z,97689.38
2018-12-24T01:11:42.463Z,97688.03
2018-12-24T01:14:14.502Z,97692.66
2018-12-24T01:16:46.525Z,97685.48
2018-12-24T01:19:18.488Z,97683.64
2018-12-24T01:21:50.467Z,97679.96
2018-12-24T01:24:22.443Z,97680.02
2018-12-24T01:26:54.431Z,97672.52
2018-12-24T01:29:26.407Z,97662.61
2018-12-24T01:31:58.370Z,97659.47
2018-12-24T01:34:30.359Z,97653.23
2018-12-24T01:37:02.420Z,97654.11
2018-12-24T01:39:34.492Z,97659.22
2018-12-24T01:42:06.462Z,97648.21
2018-12-24T01:44:38.457Z,97641.81
2018-12-24T01:47:10.438Z,97639.20
2018-12-24T01:49:42.429Z,97635.87
2018-12-24T01:52:14.413Z,97628.75
2018-12-24T01:54:46.442Z,97624.41
2018-12-24T01:57:18.501Z,97621.84
2018-12-24T01:59:50.515Z,97616.84
2018-12-24T02:02:22.469Z,97615.52
2018-12-24T02:04:54.459Z,97631.63
2018-12-24T02:07:26.416Z,97630.34
2018-12-24T02:09:58.401Z,97634.23
2018-12-24T02:12:30.423Z,97642.67
2018-12-24T02:15:02.405Z,97620.36
2018-12-24T02:17:34.423Z,97767.43
2018-12-24T02:20:06.400Z,97836.35
2018-12-24T02:22:38.401Z,97818.83
2018-12-24T02:25:10.369Z,97832.96
2018-12-24T02:27:42.345Z,97844.26
2018-12-24T02:30:14.313Z,97863.09
2018-12-24T02:32:46.306Z,97851.78
2018-12-24T02:35:18.286Z,97851.80
2018-12-24T02:37:50.290Z,97865.63
2018-12-24T02:40:41.727Z,97864.00
2018-12-24T02:43:13.701Z,97861.42
2018-12-24T02:45:45.685Z,97861.42
2018-12-24T02:48:17.690Z,97859.95
2018-12-24T02:50:49.666Z,97854.48
2018-12-24T02:53:21.660Z,97867.76
2018-12-24T02:55:53.617Z,97877.83
2018-12-24T02:58:25.584Z,97875.99
2018-12-24T03:00:57.544Z,97883.53
2018-12-24T03:03:29.511Z,97897.57
2018-12-24T03:06:01.463Z,97890.50
2018-12-24T03:08:33.436Z,97896.07
2018-12-24T03:11:05.410Z,97917.16
2018-12-24T03:13:37.389Z,97895.12
2018-12-24T03:16:09.348Z,97895.12
2018-12-24T03:18:41.354Z,97880.02
2018-12-24T03:21:13.310Z,97884.53
2018-12-24T03:23:45.298Z,97901.58
2018-12-24T03:26:36.725Z,97938.04
2018-12-24T03:29:08.710Z,97938.04
2018-12-24T03:31:40.691Z,97956.77
2018-12-24T03:34:12.876Z,97950.20
2018-12-24T03:36:44.863Z,97969.51
2018-12-24T03:39:16.847Z,97982.33
2018-12-24T03:41:48.818Z,97992.52
2018-12-24T03:44:20.772Z,97999.04
2018-12-24T03:46:52.754Z,98007.09
2018-12-24T03:49:24.744Z,97987.98
2018-12-24T03:51:56.705Z,97980.20
2018-12-24T03:54:28.663Z,98011.36
2018-12-24T03:57:00.654Z,98036.07
2018-12-24T03:59:32.630Z,98047.78
2018-12-24T04:02:04.564Z,98049.91
2018-12-24T04:04:36.535Z,98065.55
2018-12-24T04:07:08.515Z,98081.34
2018-12-24T04:09:40.457Z,98099.69
2018-12-24T04:12:12.417Z,98109.25
2018-12-24T04:14:44.397Z,98139.97
2018-12-24T04:17:16.376Z,98146.72
2018-12-24T04:19:48.313Z,98152.12
2018-12-24T04:22:20.307Z,98152.45
2018-12-24T04:24:52.231Z,98161.72
2018-12-24T04:27:24.222Z,98172.17
2018-12-24T04:29:56.171Z,98196.81
2018-12-24T04:32:28.163Z,98194.86
2018-12-24T04:35:00.286Z,98196.33
2018-12-24T04:37:32.283Z,98201.24
2018-12-24T04:40:04.233Z,98207.36
2018-12-24T04:42:36.235Z,98226.39
2018-12-24T04:45:08.209Z,98232.82
2018-12-24T04:47:40.216Z,98240.39
2018-12-24T04:50:12.153Z,98252.05
2018-12-24T04:52:44.119Z,98263.30
2018-12-24T04:55:16.105Z,98284.50
2018-12-24T04:57:48.096Z,98290.36
2018-12-24T05:00:20.039Z,98304.41
2018-12-24T05:02:52.044Z,98315.72
2018-12-24T05:05:23.996Z,98318.09
2018-12-24T05:07:55.954Z,98335.25
2018-12-24T05:10:27.932Z,98348.58
2018-12-24T05:12:59.866Z,98352.14
2018-12-24T05:15:31.855Z,98362.69
2018-12-24T05:18:03.810Z,98368.65
2018-12-24T05:20:35.783Z,98385.09
2018-12-24T05:23:07.756Z,98407.19
2018-12-24T05:25:39.774Z,98414.88
2018-12-24T05:28:11.729Z,98429.89
2018-12-24T05:30:43.716Z,98442.35
2018-12-24T05:33:15.667Z,98467.02
2018-12-24T05:35:47.647Z,98456.61
2018-12-24T05:38:19.591Z,98466.00
2018-12-24T05:40:51.573Z,98468.81
2018-12-24T05:43:23.518Z,98486.33
2018-12-24T05:45:55.494Z,98492.30
2018-12-24T05:48:27.474Z,98490.77
2018-12-24T05:50:59.479Z,98509.70
2018-12-24T05:53:31.449Z,98529.11
2018-12-24T05:56:03.419Z,98532.30
2018-12-24T05:58:35.380Z,98529.25
2018-12-24T06:01:07.563Z,98544.48
2018-12-24T06:03:39.535Z,98547.28
2018-12-24T06:06:11.554Z,98546.75
2018-12-24T06:08:43.551Z,98554.37
2018-12-24T06:11:15.521Z,98561.73
2018-12-24T06:13:47.494Z,98578.39
2018-12-24T06:16:19.506Z,98581.92
2018-12-24T06:18:51.469Z,98597.16
2018-12-24T06:21:23.445Z,98595.78
2018-12-24T06:23:55.393Z,98606.06
2018-12-24T06:26:27.365Z,98628.53
2018-12-24T06:28:59.356Z,98640.22
2018-12-24T06:31:31.337Z,98643.53
2018-12-24T06:34:03.304Z,98654.95
2018-12-24T06:36:35.286Z,98674.14
2018-12-24T06:39:07.251Z,98677.41
2018-12-24T06:41:39.191Z,98693.39
2018-12-24T06:44:11.199Z,98701.60
2018-12-24T06:46:43.167Z,98703.88
2018-12-24T06:49:15.177Z,98706.00
2018-12-24T06:51:47.120Z,98720.34
2018-12-24T06:54:19.115Z,98722.00
2018-12-24T06:56:51.087Z,98734.27
2018-12-24T06:59:23.084Z,98741.88
2018-12-24T07:01:55.056Z,98740.23
2018-12-24T07:04:27.030Z,98753.02
2018-12-24T07:06:59.018Z,98768.15
2018-12-24T07:09:30.971Z,98770.45
2018-12-24T07:12:02.979Z,98773.48
2018-12-24T07:14:34.978Z,98783.30
2018-12-24T07:17:06.966Z,98790.41
2018-12-24T07:19:38.933Z,98793.84
2018-12-24T07:22:10.960Z,98806.41
2018-12-24T07:24:42.914Z,98816.56
2018-12-24T07:27:14.938Z,98830.75
2018-12-24T07:29:46.961Z,98831.53
2018-12-24T07:32:18.924Z,98838.80
2018-12-24T07:34:50.981Z,98853.91
2018-12-24T07:37:23.002Z,98859.98
2018-12-24T07:39:54.973Z,98870.88
2018-12-24T07:42:26.982Z,98876.00
2018-12-24T07:44:58.966Z,98878.83
2018-12-24T07:47:30.945Z,98872.31
2018-12-24T07:50:03.149Z,98882.84
2018-12-24T07:52:35.198Z,98887.87
2018-12-24T07:55:07.187Z,98895.55
2018-12-24T07:57:39.200Z,98894.83
2018-12-24T08:00:11.198Z,98894.32
2018-12-24T08:02:43.218Z,98899.02
2018-12-24T08:05:15.176Z,98899.62
2018-12-24T08:07:47.223Z,98905.53
2018-12-24T08:10:19.207Z,98909.78
2018-12-24T08:12:51.224Z,98906.25
2018-12-24T08:15:23.258Z,98923.08
2018-12-24T08:17:55.276Z,98921.44
2018-12-24T08:20:27.255Z,98925.11
2018-12-24T08:22:59.304Z,98930.48
2018-12-24T08:25:31.280Z,98939.19
2018-12-24T08:28:03.375Z,98945.53
2018-12-24T08:30:35.351Z,98954.34
2018-12-24T08:33:07.399Z,98962.84
2018-12-24T08:35:39.377Z,98958.15
2018-12-24T08:38:11.381Z,98957.22
2018-12-24T08:40:43.349Z,98964.45
2018-12-24T08:43:15.378Z,98976.38
2018-12-24T08:45:47.347Z,98977.08
2018-12-24T08:48:19.354Z,98979.90
2018-12-24T08:50:51.358Z,98982.44
2018-12-24T08:53:23.333Z,98990.81
2018-12-24T08:55:55.361Z,98993.52
2018-12-24T08:58:27.343Z,98996.66
2018-12-24T09:00:59.357Z,99002.56
2018-12-24T09:03:31.350Z,99005.00
2018-12-24T09:06:03.364Z,99013.59
2018-12-24T09:08:35.355Z,99019.94
2018-12-24T09:11:07.369Z,99019.11
2018-12-24T09:13:39.347Z,99023.20
2018-12-24T09:16:11.352Z,99029.29
2018-12-24T09:18:43.339Z,99024.94
2018-12-24T09:24:15.211Z,99037.27
2018-12-24T09:26:47.173Z,99041.02
2018-12-24T09:29:19.189Z,99044.22
2018-12-24T09:31:51.194Z,99044.78
2018-12-24T09:34:23.190Z,99053.84
2018-12-24T09:36:55.219Z,99057.94
2018-12-24T09:39:27.215Z,99056.31
2018-12-24T09:41:59.233Z,99059.13
2018-12-24T09:44:31.245Z,99066.09
2018-12-24T09:47:03.259Z,99064.88
2018-12-24T09:49:35.266Z,99072.34
2018-12-24T09:52:07.297Z,99069.85
2018-12-24T09:54:39.294Z,99077.88
2018-12-24T09:57:11.448Z,99078.64
2018-12-24T09:59:43.464Z,99073.61
2018-12-24T10:02:16.447Z,99091.90
2018-12-24T10:04:52.876Z,99092.05
2018-12-24T10:07:47.291Z,99093.17
2018-12-24T10:10:19.570Z,99101.78
2018-12-24T10:12:51.575Z,99101.33
2018-12-24T10:15:23.577Z,99109.45
2018-12-24T10:17:55.616Z,99120.44
2018-12-24T10:20:27.652Z,99117.74
2018-12-24T10:22:59.722Z,99118.42
2018-12-24T10:25:31.760Z,99114.86
2018-12-24T10:28:03.802Z,99123.76
2018-12-24T10:30:35.806Z,99118.50
2018-12-24T10:33:07.784Z,99123.76
2018-12-24T10:35:39.824Z,99125.81
2018-12-24T10:38:11.771Z,99117.95
2018-12-24T10:40:58.475Z,99122.09
2018-12-24T10:43:30.460Z,99115.68
2018-12-24T10:46:02.594Z,99123.91
2018-12-24T10:48:34.649Z,99127.34
2018-12-24T10:51:06.656Z,99132.59
2018-12-24T10:53:38.656Z,99135.67
2018-12-24T10:56:10.679Z,99131.05
2018-12-24T10:58:42.699Z,99126.73
2018-12-24T11:01:14.730Z,99130.05
2018-12-24T11:03:46.791Z,99128.25
2018-12-24T11:06:18.793Z,99129.72
2018-12-24T11:08:50.802Z,99126.48
2018-12-24T11:11:23.149Z,99135.68
2018-12-24T11:13:55.158Z,99140.49
2018-12-24T11:16:27.183Z,99130.81
2018-12-24T11:18:59.212Z,99130.70
2018-12-24T11:21:31.279Z,99134.18
2018-12-24T11:24:03.302Z,99136.02
2018-12-24T11:26:35.369Z,99138.30
2018-12-24T11:29:07.430Z,99146.63
2018-12-24T11:31:39.464Z,99154.91
2018-12-24T11:34:11.425Z,99157.69
2018-12-24T11:36:43.466Z,99163.54
2018-12-24T11:39:15.510Z,99163.81
2018-12-24T11:41:47.498Z,99162.24
2018-12-24T11:44:19.603Z,99160.67
2018-12-24T11:46:51.666Z,99171.51
2018-12-24T11:49:23.740Z,99167.92
2018-12-24T11:51:55.778Z,99167.11
2018-12-24T11:54:27.818Z,99171.16
2018-12-24T11:56:59.801Z,99162.97
2018-12-24T11:59:31.840Z,99163.38
2018-12-24T12:02:09.888Z,99166.31
2018-12-24T12:04:37.832Z,99172.67
2018-12-24T12:07:09.923Z,99174.00
2018-12-24T12:09:41.956Z,99177.75
2018-12-24T12:12:13.957Z,99180.57
2018-12-24T12:14:46.030Z,99182.83
2018-12-24T12:17:18.116Z,99183.75
2018-12-24T12:19:50.135Z,99191.25
2018-12-24T12:22:22.177Z,99196.17
2018-12-24T12:24:54.229Z,99204.08
2018-12-24T12:27:26.220Z,99205.35
2018-12-24T12:29:58.253Z,99211.48
2018-12-24T12:32:30.297Z,99210.94
2018-12-24T12:35:02.331Z,99214.95
2018-12-24T12:37:34.411Z,99214.80
2018-12-24T12:40:06.522Z,99208.95
2018-12-24T12:42:38.571Z,99213.73
2018-12-24T12:45:13.069Z,99221.98
2018-12-24T12:47:45.110Z,99229.16
2018-12-24T12:50:17.162Z,99231.70
2018-12-24T12:52:49.283Z,99236.17
2018-12-24T12:55:21.363Z,99236.17
2018-12-24T12:57:53.400Z,99242.28
2018-12-24T13:00:25.493Z,99243.77
2018-12-24T13:02:57.516Z,99245.83
2018-12-24T13:05:29.598Z,99247.97
2018-12-24T13:08:01.619Z,99247.77
2018-12-24T13:10:33.677Z,99249.38
2018-12-24T13:13:05.692Z,99253.05
2018-12-24T13:15:37.758Z,99254.89
2018-12-24T13:18:09.866Z,99258.84
2018-12-24T13:20:41.874Z,99267.54
2018-12-24T13:23:13.877Z,99268.30
2018-12-24T13:25:46.004Z,99263.58
2018-12-24T13:28:18.039Z,99262.69
2018-12-24T13:30:50.135Z,99264.84
2018-12-24T13:33:22.198Z,99263.00
2018-12-24T13:35:54.260Z,99259.09
2018-12-24T13:38:26.347Z,99264.20
2018-12-24T13:40:58.405Z,99269.73
2018-12-24T13:43:30.472Z,99272.52
2018-12-24T13:46:08.041Z,99278.58
2018-12-24T13:48:37.453Z,99282.72
2018-12-24T13:51:09.553Z,99280.83
2018-12-24T13:53:42.213Z,99284.60
2018-12-24T13:56:14.364Z,99281.61
2018-12-24T13:58:46.427Z,99293.25
2018-12-24T14:01:18.439Z,99305.14
2018-12-24T14:03:50.526Z,99306.78
2018-12-24T14:06:22.535Z,99321.64
2018-12-24T14:08:54.608Z,99331.20
2018-12-24T14:11:26.664Z,99327.91
2018-12-24T14:13:58.703Z,99329.63
2018-12-24T14:16:30.774Z,99334.47
2018-12-24T14:19:02.932Z,99332.69
2018-12-24T14:21:34.989Z,99343.30
2018-12-24T14:24:07.076Z,99347.02
2018-12-24T14:26:39.126Z,99354.05
2018-12-24T14:29:11.193Z,99359.03
2018-12-24T14:31:43.263Z,99360.59
2018-12-24T14:34:15.782Z,99355.30
2018-12-24T14:36:47.855Z,99357.62
2018-12-24T14:39:19.906Z,99363.39
2018-12-24T14:41:51.968Z,99366.14
2018-12-24T14:44:23.993Z,99358.83
2018-12-24T14:46:56.038Z,99361.58
2018-12-24T14:49:28.117Z,99363.91
2018-12-24T14:52:00.199Z,99368.02
2018-12-24T14:54:32.247Z,99371.83
2018-12-24T14:57:04.291Z,99370.77
2018-12-24T14:59:36.293Z,99374.36
2018-12-24T15:02:08.539Z,99372.72
2018-12-24T15:04:40.546Z,99378.69
2018-12-24T15:07:12.569Z,99383.98
2018-12-24T15:09:44.575Z,99385.25
2018-12-24T15:12:16.619Z,99385.58
2018-12-24T15:14:48.650Z,99385.20
2018-12-24T15:17:20.660Z,99390.28
2018-12-24T15:19:52.709Z,99386.77
2018-12-24T15:22:24.707Z,99402.89
2018-12-24T15:24:56.765Z,99403.86
2018-12-24T15:27:28.821Z,99411.48
2018-12-24T15:30:00.798Z,99414.53
2018-12-24T15:32:32.838Z,99408.56
2018-12-24T15:35:04.987Z,99419.98
2018-12-24T15:37:37.007Z,99421.84
2018-12-24T15:40:09.038Z,99421.84
2018-12-24T15:42:41.079Z,99436.78
2018-12-24T15:45:13.064Z,99434.75
2018-12-24T15:47:45.165Z,99437.84
2018-12-24T15:50:17.197Z,99442.16
2018-12-24T15:52:49.212Z,99439.31
2018-12-24T15:55:21.201Z,99447.61
2018-12-24T15:57:53.222Z,99449.47
2018-12-24T16:00:25.281Z,99451.25
2018-12-24T16:02:57.254Z,99456.33
2018-12-24T16:05:29.260Z,99457.25
2018-12-24T16:08:01.342Z,99456.88
2018-12-24T16:10:33.368Z,99467.84
2018-12-24T16:13:05.411Z,99469.27
2018-12-24T16:15:37.460Z,99475.31
2018-12-24T16:18:09.495Z,99483.80
2018-12-24T16:20:41.544Z,99490.84
2018-12-24T16:23:13.611Z,99485.45
2018-12-24T16:25:45.674Z,99490.02
2018-12-24T16:28:17.802Z,99502.23
2018-12-24T16:30:49.801Z,99500.31
2018-12-24T16:33:21.794Z,99507.54
2018-12-24T16:35:53.842Z,99503.98
2018-12-24T16:38:25.893Z,99502.98
2018-12-24T16:40:57.923Z,99491.77
2018-12-24T16:43:29.929Z,99495.20
2018-12-24T16:46:02.031Z,99488.44
2018-12-24T16:48:34.057Z,99491.11
2018-12-24T16:51:06.136Z,99498.92
2018-12-24T16:53:40.574Z,99500.25
2018-12-24T16:56:12.106Z,99507.23
2018-12-24T16:58:44.117Z,99511.24
2018-12-24T17:01:16.160Z,99504.67
2018-12-24T17:03:48.160Z,99501.31
2018-12-24T17:06:20.190Z,99499.52
2018-12-24T17:08:52.210Z,99504.28
2018-12-24T17:11:24.247Z,99512.80
2018-12-24T17:13:56.266Z,99521.97
2018-12-24T17:16:28.360Z,99525.67
2018-12-24T17:19:00.391Z,99525.21
2018-12-24T17:21:32.393Z,99533.58
2018-12-24T17:24:04.399Z,99529.66
2018-12-24T17:26:36.441Z,99547.39
2018-12-24T17:29:08.462Z,99558.90
2018-12-24T17:31:40.504Z,99562.70
2018-12-24T17:34:12.565Z,99569.18
2018-12-24T17:36:44.613Z,99570.82
2018-12-24T17:39:16.604Z,99568.52
2018-12-24T17:41:48.628Z,99585.55
2018-12-24T17:44:20.622Z,99587.19
2018-12-24T17:46:52.694Z,99584.16
2018-12-24T17:49:24.761Z,99586.73
2018-12-24T17:51:56.818Z,99583.27
2018-12-24T17:54:28.846Z,99574.15
2018-12-24T17:57:00.841Z,99568.19
2018-12-24T17:59:32.878Z,99570.92
2018-12-24T18:02:04.871Z,99580.36
2018-12-24T18:04:36.876Z,99579.48
2018-12-24T18:07:08.885Z,99578.81
2018-12-24T18:09:40.954Z,99576.80
2018-12-24T18:12:12.946Z,99582.94
2018-12-24T18:14:45.004Z,99586.75
2018-12-24T18:17:24.521Z,99584.27
2018-12-24T18:19:50.951Z,99584.06
2018-12-24T18:22:22.984Z,99580.79
2018-12-24T18:24:55.025Z,99587.12
2018-12-24T18:27:27.042Z,99580.74
2018-12-24T18:29:59.083Z,99580.67
2018-12-24T18:32:31.057Z,99578.72
2018-12-24T18:35:03.513Z,99585.20
2018-12-24T18:37:35.516Z,99591.30
2018-12-24T18:40:07.571Z,99602.23
2018-12-24T18:42:39.604Z,99605.23
2018-12-24T18:45:11.807Z,99617.19
2018-12-24T18:47:43.861Z,99618.53
2018-12-24T18:50:15.954Z,99618.87
2018-12-24T18:52:47.960Z,99612.68
2018-12-24T18:55:20.358Z,99614.98
2018-12-24T18:57:52.569Z,99618.78
2018-12-24T19:00:24.613Z,99623.28
2018-12-24T19:02:56.624Z,99618.21
2018-12-24T19:05:28.664Z,99620.52
2018-12-24T19:08:00.730Z,99625.81
2018-12-24T19:10:32.721Z,99619.71
2018-12-24T19:13:04.734Z,99622.48
2018-12-24T19:15:36.730Z,99617.41
2018-12-24T19:18:08.769Z,99622.48
2018-12-24T19:20:40.834Z,99624.34
2018-12-24T19:23:13.680Z,99623.19
2018-12-24T19:25:45.681Z,99619.09
2018-12-24T19:28:17.690Z,99628.05
2018-12-24T19:30:49.723Z,99628.83
2018-12-24T19:33:21.796Z,99626.38
2018-12-24T19:35:53.793Z,99617.89
2018-12-24T19:38:25.787Z,99627.48
2018-12-24T19:40:57.810Z,99627.52
2018-12-24T19:43:29.861Z,99630.80
2018-12-24T19:46:01.915Z,99635.70
2018-12-24T19:48:33.969Z,99639.01
2018-12-24T19:51:06.005Z,99649.87
2018-12-24T19:53:38.044Z,99666.73
2018-12-24T19:56:10.040Z,99679.24
2018-12-24T19:58:42.051Z,99681.27
2018-12-24T20:01:14.052Z,99684.14
2018-12-24T20:03:46.084Z,99687.23
2018-12-24T20:06:18.106Z,99694.11
2018-12-24T20:08:50.166Z,99695.36
2018-12-24T20:11:22.188Z,99697.16
2018-12-24T20:13:54.243Z,99696.78
2018-12-24T20:16:26.265Z,99701.42
2018-12-24T20:18:58.290Z,99707.24
2018-12-24T20:21:30.322Z,99716.45
2018-12-24T20:24:02.385Z,99720.78
2018-12-24T20:26:34.379Z,99710.14
2018-12-24T20:29:06.396Z,99711.20
2018-12-24T20:31:38.369Z,99714.42
2018-12-24T20:34:10.422Z,99722.90
2018-12-24T20:36:42.752Z,99723.93
2018-12-24T20:39:14.902Z,99744.91
2018-12-24T20:41:46.929Z,99752.86
2018-12-24T20:44:18.881Z,99759.18
2018-12-24T20:46:50.950Z,99755.23
2018-12-24T20:49:22.978Z,99766.95
2018-12-24T20:51:54.985Z,99774.89
2018-12-24T20:54:26.970Z,99783.00
2018-12-24T20:56:59.035Z,99792.02
2018-12-24T20:59:31.014Z,99793.83
2018-12-24T21:02:03.064Z,99785.31
2018-12-24T21:04:35.059Z,99790.92
2018-12-24T21:07:07.128Z,99779.55
2018-12-24T21:09:39.098Z,99768.63
2018-12-24T21:12:11.193Z,99772.64
2018-12-24T21:14:43.184Z,99761.83
2018-12-24T21:17:15.200Z,99751.58
2018-12-24T21:19:47.197Z,99752.49
2018-12-24T21:22:19.279Z,99754.31
2018-12-24T21:24:51.271Z,99752.30
2018-12-24T21:27:23.334Z,99752.30
2018-12-24T21:29:55.313Z,99751.09
2018-12-24T21:32:27.362Z,99757.76
2018-12-24T21:34:59.355Z,99750.01
2018-12-24T21:37:31.402Z,99745.50
2018-12-24T21:40:03.439Z,99743.91
2018-12-24T21:42:35.453Z,99740.82
2018-12-24T21:45:07.522Z,99735.98
2018-12-24T21:47:39.586Z,99741.78
2018-12-24T21:50:11.568Z,99744.31
2018-12-24T21:52:43.600Z,99746.50
2018-12-24T21:55:15.642Z,99747.59
2018-12-24T21:57:47.725Z,99740.92
2018-12-24T22:00:19.790Z,99746.89
2018-12-24T22:02:52.071Z,99745.66
2018-12-24T22:05:24.094Z,99751.27
2018-12-24T22:07:56.164Z,99757.41
2018-12-24T22:10:28.205Z,99750.20
2018-12-24T22:13:00.246Z,99755.80
2018-12-24T22:15:32.279Z,99766.08
2018-12-24T22:18:04.302Z,99770.95
2018-12-24T22:20:36.446Z,99769.53
2018-12-24T22:23:08.559Z,99776.36
2018-12-24T22:25:40.605Z,99776.92
2018-12-24T22:28:12.633Z,99775.10
2018-12-24T22:30:44.618Z,99773.14
2018-12-24T22:33:16.627Z,99774.58
2018-12-24T22:35:48.657Z,99779.09
2018-12-24T22:38:20.679Z,99780.89
2018-12-24T22:40:52.677Z,99783.05
2018-12-24T22:43:24.665Z,99782.17
2018-12-24T22:45:56.721Z,99784.49
2018-12-24T22:48:28.709Z,99779.80
2018-12-24T22:51:00.864Z,99777.47
2018-12-24T22:53:32.844Z,99786.32
2018-12-24T22:56:04.861Z,99802.70
2018-12-24T22:58:36.890Z,99812.28
2018-12-24T23:01:08.908Z,99815.00
2018-12-24T23:03:40.927Z,99812.10
2018-12-24T23:06:12.939Z,99816.97
2018-12-24T23:08:44.941Z,99804.17
2018-12-24T23:11:17.039Z,99806.52
2018-12-24T23:13:49.136Z,99817.87
2018-12-24T23:16:21.195Z,99811.55
2018-12-24T23:18:53.214Z,99817.13
2018-12-24T23:21:25.232Z,99822.20
2018-12-24T23:23:57.264Z,99823.84
2018-12-24T23:26:29.281Z,99822.02
2018-12-24T23:29:01.311Z,99822.75
2018-12-24T23:31:33.389Z,99821.48
2018-12-24T23:34:05.436Z,99817.52
2018-12-24T23:36:37.438Z,99809.41
2018-12-24T23:39:09.529Z,99815.70
2018-12-24T23:41:41.528Z,99814.98
2018-12-24T23:44:13.539Z,99807.41
2018-12-24T23:46:45.563Z,99814.81
2018-12-24T23:49:17.608Z,99818.95
2018-12-24T23:51:49.618Z,99813.55
2018-12-24T23:54:21.732Z,99814.64
2018-12-24T23:56:53.736Z,99831.23
2018-12-24T23:59:25.732Z,99830.30
